PRIVATE WETTERSTATION BILLIGHEIM-ALLFELD                       ZURCK
Wetterdaten: Donnerstag, 05.01.2017
Datum Zeit Temp. A. Temp. A. min Temp. A. max Feuchte A. Luftdruck Regen Wind Richtung Richtung Sonnenschein ET Solar Taupunkt Windchill Windben Empfang
05.01.2017 00:00 0,3 C 0,2 C 0,3 C 93 % 1017,9 hPa 0,0 l/m 4,8 km/h (1 Bft) W-NW 292 0 min 0,000 mm 0 W/m -0,7 C 0,3 C 14,5 km/h (3 Bft) 100 %
05.01.2017 00:10 0,4 C 0,3 C 0,4 C 93 % 1018,0 hPa 0,0 l/m 8,0 km/h (2 Bft) W-NW 292 0 min 0,000 mm 0 W/m -0,6 C -1,2 C 16,1 km/h (3 Bft) 91 %
05.01.2017 00:20 0,5 C 0,4 C 0,5 C 92 % 1018,1 hPa 0,0 l/m 8,0 km/h (2 Bft) W-NW 292 0 min 0,000 mm 0 W/m -0,6 C -1,1 C 19,3 km/h (3 Bft) 100 %
05.01.2017 00:30 0,5 C 0,4 C 0,5 C 93 % 1018,2 hPa 0,0 l/m 6,4 km/h (2 Bft) NW 315 0 min 0,000 mm 0 W/m -0,5 C 0,5 C 12,9 km/h (3 Bft) 100 %
05.01.2017 00:40 0,4 C 0,4 C 0,5 C 93 % 1018,3 hPa 0,0 l/m 4,8 km/h (1 Bft) NW 315 0 min 0,000 mm 0 W/m -0,6 C 0,4 C 11,3 km/h (2 Bft) 100 %
05.01.2017 00:50 0,4 C 0,4 C 0,4 C 93 % 1018,5 hPa 0,0 l/m 3,2 km/h (1 Bft) NW 315 0 min 0,000 mm 0 W/m -0,6 C 0,4 C 12,9 km/h (3 Bft) 100 %
05.01.2017 01:00 0,3 C 0,3 C 0,4 C 92 % 1018,4 hPa 0,0 l/m 3,2 km/h (1 Bft) W-NW 292 0 min 0,000 mm 0 W/m -0,8 C 0,3 C 11,3 km/h (2 Bft) 100 %
05.01.2017 01:10 0,1 C 0,1 C 0,3 C 92 % 1018,5 hPa 0,0 l/m 4,8 km/h (1 Bft) W-NW 292 0 min 0,000 mm 0 W/m -1,0 C 0,1 C 11,3 km/h (2 Bft) 97 %
05.01.2017 01:20 -0,1 C -0,1 C 0,1 C 92 % 1018,7 hPa 0,0 l/m 6,4 km/h (2 Bft) W-NW 292 0 min 0,000 mm 0 W/m -1,2 C -0,1 C 17,7 km/h (3 Bft) 98 %
05.01.2017 01:30 -0,3 C -0,3 C -0,1 C 92 % 1018,8 hPa 0,0 l/m 6,4 km/h (2 Bft) NW 315 0 min 0,000 mm 0 W/m -1,4 C -0,3 C 16,1 km/h (3 Bft) 97 %
05.01.2017 01:40 -0,6 C -0,6 C -0,3 C 91 % 1019,1 hPa 0,0 l/m 0,0 km/h (0 Bft) NW 315 0 min 0,000 mm 0 W/m -1,9 C -0,6 C 1,6 km/h (1 Bft) 98 %
05.01.2017 01:50 -0,9 C -0,9 C -0,6 C 91 % 1019,2 hPa 0,0 l/m 0,0 km/h (0 Bft) N 0 0 min 0,000 mm 0 W/m -2,2 C -0,9 C 0,0 km/h (0 Bft) 96 %
05.01.2017 02:00 -1,0 C -1,0 C -0,9 C 92 % 1019,3 hPa 0,0 l/m 0,0 km/h (0 Bft) NW 315 0 min 0,000 mm 0 W/m -2,1 C -1,0 C 3,2 km/h (1 Bft) 98 %
05.01.2017 02:10 -1,0 C -1,0 C -0,9 C 92 % 1019,4 hPa 0,0 l/m 0,0 km/h (0 Bft) N 0 0 min 0,000 mm 0 W/m -2,1 C -1,0 C 0,0 km/h (0 Bft) 98 %
05.01.2017 02:20 -1,2 C -1,2 C -1,0 C 91 % 1019,7 hPa 0,0 l/m 0,0 km/h (0 Bft) N 0 0 min 0,000 mm 0 W/m -2,5 C -1,2 C 0,0 km/h (0 Bft) 97 %
05.01.2017 02:30 -1,3 C -1,3 C -1,2 C 92 % 1019,9 hPa 0,0 l/m 0,0 km/h (0 Bft) N 0 0 min 0,000 mm 0 W/m -2,4 C -1,3 C 0,0 km/h (0 Bft) 98 %
05.01.2017 02:40 -1,3 C -1,3 C -1,3 C 92 % 1020,2 hPa 0,0 l/m 0,0 km/h (0 Bft) N 0 0 min 0,000 mm 0 W/m -2,4 C -1,3 C 0,0 km/h (0 Bft) 98 %
05.01.2017 02:50 -1,4 C -1,4 C -1,3 C 92 % 1020,3 hPa 0,0 l/m 0,0 km/h (0 Bft) N 0 0 min 0,000 mm 0 W/m -2,5 C -1,4 C 0,0 km/h (0 Bft) 98 %
05.01.2017 03:00 -1,6 C -1,6 C -1,4 C 92 % 1020,1 hPa 0,0 l/m 0,0 km/h (0 Bft) N 0 0 min 0,000 mm 0 W/m -2,7 C -1,6 C 0,0 km/h (0 Bft) 97 %
05.01.2017 03:10 -1,6 C -1,6 C -1,6 C 92 % 1020,3 hPa 0,0 l/m 0,0 km/h (0 Bft) N 0 0 min 0,000 mm 0 W/m -2,7 C -1,6 C 0,0 km/h (0 Bft) 98 %
05.01.2017 03:20 -1,3 C -1,6 C -1,3 C 92 % 1020,3 hPa 0,0 l/m 0,0 km/h (0 Bft) N 0 0 min 0,000 mm 0 W/m -2,4 C -1,3 C 0,0 km/h (0 Bft) 98 %
05.01.2017 03:30 -1,2 C -1,3 C -1,2 C 92 % 1020,5 hPa 0,0 l/m 0,0 km/h (0 Bft) N 0 0 min 0,000 mm 0 W/m -2,3 C -1,2 C 0,0 km/h (0 Bft) 97 %
05.01.2017 03:40 -1,1 C -1,2 C -1,1 C 92 % 1020,6 hPa 0,0 l/m 0,0 km/h (0 Bft) W-NW 292 0 min 0,000 mm 0 W/m -2,2 C -1,1 C 1,6 km/h (1 Bft) 98 %
05.01.2017 03:50 -1,1 C -1,2 C -1,1 C 92 % 1020,6 hPa 0,0 l/m 0,0 km/h (0 Bft) N 0 0 min 0,000 mm 0 W/m -2,2 C -1,1 C 0,0 km/h (0 Bft) 91 %
05.01.2017 04:00 -1,3 C -1,3 C -1,1 C 91 % 1020,7 hPa 0,0 l/m 0,0 km/h (0 Bft) W-NW 292 0 min 0,000 mm 0 W/m -2,6 C -1,3 C 6,4 km/h (2 Bft) 95 %
05.01.2017 04:10 -1,4 C -1,4 C -1,3 C 92 % 1020,7 hPa 0,0 l/m 1,6 km/h (1 Bft) W-NW 292 0 min 0,000 mm 0 W/m -2,5 C -1,4 C 6,4 km/h (2 Bft) 97 %
05.01.2017 04:20 -1,7 C -1,7 C -1,4 C 92 % 1020,8 hPa 0,0 l/m 0,0 km/h (0 Bft) W-NW 292 0 min 0,000 mm 0 W/m -2,8 C -1,7 C 3,2 km/h (1 Bft) 97 %
05.01.2017 04:30 -1,8 C -1,8 C -1,7 C 92 % 1020,9 hPa 0,0 l/m 0,0 km/h (0 Bft) N 0 0 min 0,000 mm 0 W/m -2,9 C -1,8 C 0,0 km/h (0 Bft) 98 %
05.01.2017 04:40 -2,1 C -2,1 C -1,8 C 92 % 1021,0 hPa 0,0 l/m 0,0 km/h (0 Bft) N 0 0 min 0,000 mm 0 W/m -3,2 C -2,1 C 0,0 km/h (0 Bft) 97 %
05.01.2017 04:50 -2,1 C -2,1 C -2,1 C 92 % 1021,2 hPa 0,0 l/m 0,0 km/h (0 Bft) W-NW 292 0 min 0,000 mm 0 W/m -3,2 C -2,1 C 4,8 km/h (1 Bft) 98 %
05.01.2017 05:00 -2,1 C -2,1 C -2,1 C 93 % 1021,4 hPa 0,0 l/m 1,6 km/h (1 Bft) W-NW 292 0 min 0,000 mm 0 W/m -3,1 C -2,1 C 8,0 km/h (2 Bft) 97 %
05.01.2017 05:10 -1,9 C -2,1 C -1,9 C 93 % 1021,4 hPa 0,0 l/m 1,6 km/h (1 Bft) NW 315 0 min 0,000 mm 0 W/m -2,9 C -1,9 C 8,0 km/h (2 Bft) 98 %
05.01.2017 05:20 -1,9 C -1,9 C -1,9 C 92 % 1021,5 hPa 0,0 l/m 1,6 km/h (1 Bft) W-NW 292 0 min 0,000 mm 0 W/m -3,0 C -1,9 C 6,4 km/h (2 Bft) 97 %
05.01.2017 05:30 -1,8 C -1,9 C -1,8 C 92 % 1021,5 hPa 0,0 l/m 0,0 km/h (0 Bft) W-NW 292 0 min 0,000 mm 0 W/m -2,9 C -1,8 C 6,4 km/h (2 Bft) 96 %
05.01.2017 05:40 -1,8 C -1,8 C -1,8 C 92 % 1021,7 hPa 0,0 l/m 0,0 km/h (0 Bft) W-NW 292 0 min 0,000 mm 0 W/m -2,9 C -1,8 C 3,2 km/h (1 Bft) 98 %
05.01.2017 05:50 -1,9 C -1,9 C -1,8 C 92 % 1021,9 hPa 0,0 l/m 0,0 km/h (0 Bft) W-NW 292 0 min 0,000 mm 0 W/m -3,0 C -1,9 C 3,2 km/h (1 Bft) 97 %
05.01.2017 06:00 -2,1 C -2,1 C -1,9 C 92 % 1022,1 hPa 0,0 l/m 0,0 km/h (0 Bft) N 0 0 min 0,000 mm 0 W/m -3,2 C -2,1 C 0,0 km/h (0 Bft) 98 %
05.01.2017 06:10 -2,3 C -2,3 C -2,1 C 92 % 1022,1 hPa 0,0 l/m 0,0 km/h (0 Bft) N 0 0 min 0,000 mm 0 W/m -3,4 C -2,3 C 0,0 km/h (0 Bft) 88 %
05.01.2017 06:20 -2,6 C -2,6 C -2,3 C 92 % 1022,2 hPa 0,0 l/m 0,0 km/h (0 Bft) N 0 0 min 0,000 mm 0 W/m -3,7 C -2,6 C 0,0 km/h (0 Bft) 98 %
05.01.2017 06:30 -2,7 C -2,7 C -2,6 C 93 % 1022,4 hPa 0,0 l/m 0,0 km/h (0 Bft) N 0 0 min 0,000 mm 0 W/m -3,7 C -2,7 C 0,0 km/h (0 Bft) 97 %
05.01.2017 06:40 -2,8 C -2,8 C -2,6 C 92 % 1022,5 hPa 0,0 l/m 0,0 km/h (0 Bft) W-NW 293 0 min 0,000 mm 0 W/m -3,9 C -2,8 C 0,0 km/h (0 Bft) 99 %
05.01.2017 06:50 -2,9 C -2,9 C -2,8 C 92 % 1022,5 hPa 0,0 l/m 0,0 km/h (0 Bft) W-NW 293 0 min 0,000 mm 0 W/m -4,0 C -2,9 C 0,0 km/h (0 Bft) 99 %
05.01.2017 07:00 -2,8 C -2,9 C -2,8 C 92 % 1022,6 hPa 0,0 l/m 0,0 km/h (0 Bft) W-NW 293 0 min 0,000 mm 0 W/m -3,9 C -2,8 C 0,0 km/h (0 Bft) 99 %
05.01.2017 07:10 -2,9 C -2,9 C -2,8 C 92 % 1022,7 hPa 0,0 l/m 0,0 km/h (0 Bft) W-NW 293 0 min 0,000 mm 0 W/m -4,0 C -2,9 C 0,0 km/h (0 Bft) 99 %
05.01.2017 07:20 -3,1 C -3,1 C -2,9 C 93 % 1022,8 hPa 0,0 l/m 0,0 km/h (0 Bft) W-NW 293 0 min 0,000 mm 0 W/m -4,1 C -3,1 C 0,0 km/h (0 Bft) 100 %
05.01.2017 07:30 -3,2 C -3,2 C -3,1 C 92 % 1022,9 hPa 0,0 l/m 0,0 km/h (0 Bft) NW 311 0 min 0,000 mm 0 W/m -4,3 C -3,2 C 1,6 km/h (1 Bft) 100 %
05.01.2017 07:40 -3,3 C -3,3 C -3,2 C 93 % 1023,1 hPa 0,0 l/m 0,0 km/h (0 Bft) NW 311 0 min 0,000 mm 0 W/m -4,3 C -3,3 C 0,0 km/h (0 Bft) 99 %
05.01.2017 07:50 -3,6 C -3,6 C -3,3 C 92 % 1023,2 hPa 0,0 l/m 0,0 km/h (0 Bft) NW 313 0 min 0,000 mm 0 W/m -4,7 C -3,6 C 0,0 km/h (0 Bft) 100 %
05.01.2017 08:00 -3,8 C -3,8 C -3,6 C 92 % 1023,5 hPa 0,0 l/m 0,0 km/h (0 Bft) NW 314 0 min 0,000 mm 0 W/m -4,9 C -3,8 C 0,0 km/h (0 Bft) 100 %
05.01.2017 08:10 -3,9 C -3,9 C -3,8 C 92 % 1023,7 hPa 0,0 l/m 0,0 km/h (0 Bft) NW 314 0 min 0,000 mm 0 W/m -5,0 C -3,9 C 0,0 km/h (0 Bft) 100 %
05.01.2017 08:20 -3,8 C -3,9 C -3,8 C 92 % 1023,9 hPa 0,0 l/m 0,0 km/h (0 Bft) NW 314 0 min 0,000 mm 0 W/m -4,9 C -3,8 C 0,0 km/h (0 Bft) 100 %
05.01.2017 08:30 -3,8 C -3,9 C -3,8 C 92 % 1023,8 hPa 0,0 l/m 0,0 km/h (0 Bft) NW 314 0 min 0,000 mm 0 W/m -4,9 C -3,8 C 0,0 km/h (0 Bft) 100 %
05.01.2017 08:40 -3,6 C -3,8 C -3,6 C 92 % 1023,9 hPa 0,0 l/m 0,0 km/h (0 Bft) NW 314 0 min 0,000 mm 0 W/m -4,7 C -3,6 C 0,0 km/h (0 Bft) 100 %
05.01.2017 08:50 -3,4 C -3,6 C -3,3 C 92 % 1024,1 hPa 0,0 l/m 1,3 km/h (1 Bft) N-NW 327 0 min 0,000 mm 11 W/m -4,5 C -3,4 C 9,7 km/h (2 Bft) 100 %
05.01.2017 09:00 -3,2 C -3,4 C -3,2 C 92 % 1024,3 hPa 0,0 l/m 1,9 km/h (1 Bft) N-NW 343 0 min 0,000 mm 9 W/m -4,3 C -3,2 C 17,7 km/h (3 Bft) 100 %
05.01.2017 09:10 -3,2 C -3,2 C -3,2 C 92 % 1024,5 hPa 0,0 l/m 0,0 km/h (0 Bft) N 355 0 min 0,000 mm 33 W/m -4,3 C -3,2 C 1,6 km/h (1 Bft) 100 %
05.01.2017 09:20 -2,7 C -3,2 C -2,7 C 92 % 1024,7 hPa 0,0 l/m 0,0 km/h (0 Bft) N 355 0 min 0,000 mm 128 W/m -3,8 C -2,7 C 1,6 km/h (1 Bft) 100 %
05.01.2017 09:30 -1,8 C -2,7 C -1,8 C 92 % 1024,8 hPa 0,0 l/m 0,0 km/h (0 Bft) N 355 0 min 0,000 mm 146 W/m -2,9 C -1,8 C 0,0 km/h (0 Bft) 100 %
05.01.2017 09:40 -1,1 C -1,8 C -1,1 C 92 % 1025,0 hPa 0,0 l/m 0,0 km/h (0 Bft) N 355 10 min 0,000 mm 172 W/m -2,2 C -1,1 C 1,6 km/h (1 Bft) 100 %
05.01.2017 09:50 -0,5 C -1,1 C -0,5 C 91 % 1025,1 hPa 0,0 l/m 0,2 km/h (0 Bft) N 351 10 min 0,000 mm 213 W/m -1,8 C -0,5 C 6,4 km/h (2 Bft) 100 %
05.01.2017 10:00 -0,2 C -0,5 C -0,2 C 86 % 1025,3 hPa 0,0 l/m 0,1 km/h (0 Bft) N 349 10 min 0,051 mm 244 W/m -2,3 C -0,2 C 6,4 km/h (2 Bft) 100 %
05.01.2017 10:10 -0,4 C -0,4 C -0,2 C 85 % 1025,4 hPa 0,0 l/m 0,5 km/h (0 Bft) N-NW 337 0 min 0,000 mm 30 W/m -2,6 C -0,4 C 9,7 km/h (2 Bft) 100 %
05.01.2017 10:20 -0,9 C -0,9 C -0,4 C 84 % 1025,6 hPa 0,0 l/m 0,1 km/h (0 Bft) N 350 10 min 0,000 mm 299 W/m -3,3 C -0,9 C 4,8 km/h (1 Bft) 100 %
05.01.2017 10:30 -1,0 C -1,0 C -0,9 C 85 % 1025,8 hPa 0,0 l/m 0,0 km/h (0 Bft) N-NW 345 0 min 0,000 mm 47 W/m -3,2 C -1,0 C 0,0 km/h (0 Bft) 100 %
05.01.2017 10:40 -0,9 C -1,0 C -0,9 C 86 % 1026,0 hPa 0,0 l/m 0,0 km/h (0 Bft) N-NW 346 10 min 0,000 mm 311 W/m -2,9 C -0,9 C 0,0 km/h (0 Bft) 100 %
05.01.2017 10:50 -0,7 C -0,9 C -0,7 C 85 % 1026,2 hPa 0,0 l/m 0,0 km/h (0 Bft) N-NW 344 10 min 0,000 mm 371 W/m -2,9 C -0,7 C 3,2 km/h (1 Bft) 100 %
05.01.2017 11:00 -0,2 C -0,7 C -0,2 C 86 % 1026,1 hPa 0,0 l/m 1,4 km/h (1 Bft) N-NW 338 10 min 0,076 mm 348 W/m -2,3 C -0,2 C 11,3 km/h (2 Bft) 100 %
05.01.2017 11:10 0,4 C -0,2 C 0,4 C 85 % 1026,2 hPa 0,0 l/m 0,4 km/h (0 Bft) N-NO 15 10 min 0,000 mm 327 W/m -1,8 C 0,4 C 6,4 km/h (2 Bft) 100 %
05.01.2017 11:20 0,8 C 0,4 C 0,8 C 82 % 1026,3 hPa 0,0 l/m 1,5 km/h (1 Bft) N-NW 343 10 min 0,000 mm 302 W/m -1,9 C 0,8 C 16,1 km/h (3 Bft) 99 %
05.01.2017 11:30 1,0 C 0,8 C 1,0 C 80 % 1026,3 hPa 0,0 l/m 2,2 km/h (1 Bft) N 355 10 min 0,000 mm 299 W/m -2,1 C 1,0 C 17,7 km/h (3 Bft) 98 %
05.01.2017 11:40 1,0 C 0,9 C 1,0 C 81 % 1026,5 hPa 0,0 l/m 0,1 km/h (0 Bft) N-NW 346 10 min 0,000 mm 272 W/m -1,9 C 1,0 C 4,8 km/h (1 Bft) 97 %
05.01.2017 11:50 1,1 C 0,9 C 1,1 C 79 % 1026,5 hPa 0,0 l/m 1,4 km/h (1 Bft) N-NW 329 10 min 0,000 mm 213 W/m -2,1 C 1,1 C 11,3 km/h (2 Bft) 98 %
05.01.2017 12:00 1,3 C 1,1 C 1,3 C 79 % 1026,7 hPa 0,0 l/m 1,8 km/h (1 Bft) N-NW 340 10 min 0,102 mm 330 W/m -1,9 C 1,3 C 14,5 km/h (3 Bft) 98 %
05.01.2017 12:10 1,4 C 1,3 C 1,4 C 78 % 1026,7 hPa 0,0 l/m 2,2 km/h (1 Bft) N-NW 345 10 min 0,000 mm 281 W/m -2,0 C 1,4 C 12,9 km/h (3 Bft) 100 %
05.01.2017 12:20 1,4 C 1,4 C 1,4 C 79 % 1026,8 hPa 0,0 l/m 2,2 km/h (1 Bft) NW 317 10 min 0,000 mm 316 W/m -1,8 C 1,4 C 16,1 km/h (3 Bft) 100 %
05.01.2017 12:30 1,4 C 1,4 C 1,6 C 76 % 1026,6 hPa 0,0 l/m 7,2 km/h (2 Bft) N-NO 26 10 min 0,000 mm 299 W/m -2,4 C 0,6 C 19,3 km/h (3 Bft) 100 %
05.01.2017 12:40 1,3 C 1,3 C 1,4 C 74 % 1026,8 hPa 0,0 l/m 3,2 km/h (1 Bft) N 5 10 min 0,000 mm 243 W/m -2,8 C 1,3 C 17,7 km/h (3 Bft) 100 %
05.01.2017 12:50 1,1 C 1,1 C 1,3 C 75 % 1026,8 hPa 0,0 l/m 4,5 km/h (1 Bft) N-NW 329 10 min 0,000 mm 276 W/m -2,8 C 1,1 C 12,9 km/h (3 Bft) 100 %
05.01.2017 13:00 0,7 C 0,7 C 1,1 C 72 % 1026,9 hPa 0,0 l/m 8,4 km/h (2 Bft) N-NW 327 10 min 0,101 mm 292 W/m -3,8 C -1,3 C 27,4 km/h (4 Bft) 100 %
05.01.2017 13:10 0,5 C 0,5 C 0,7 C 74 % 1027,0 hPa 0,0 l/m 5,1 km/h (1 Bft) N 349 10 min 0,000 mm 279 W/m -3,6 C 0,5 C 17,7 km/h (3 Bft) 100 %
05.01.2017 13:20 0,3 C 0,3 C 0,5 C 73 % 1027,0 hPa 0,0 l/m 1,8 km/h (1 Bft) N 10 10 min 0,000 mm 258 W/m -4,0 C 0,3 C 12,9 km/h (3 Bft) 100 %
05.01.2017 13:30 0,1 C 0,1 C 0,3 C 72 % 1027,5 hPa 0,0 l/m 0,7 km/h (0 Bft) NO 45 10 min 0,000 mm 183 W/m -4,3 C 0,1 C 9,7 km/h (2 Bft) 100 %
05.01.2017 13:40 -0,1 C -0,1 C 0,1 C 75 % 1027,6 hPa 0,0 l/m 2,3 km/h (1 Bft) N-NW 334 10 min 0,000 mm 181 W/m -4,0 C -0,1 C 20,9 km/h (4 Bft) 100 %
05.01.2017 13:50 -0,1 C -0,1 C -0,1 C 73 % 1027,8 hPa 0,0 l/m 1,6 km/h (1 Bft) N-NW 342 0 min 0,000 mm 148 W/m -4,3 C -0,1 C 11,3 km/h (2 Bft) 100 %
05.01.2017 14:00 0,0 C -0,1 C 0,0 C 75 % 1027,8 hPa 0,0 l/m 2,0 km/h (1 Bft) NW 325 10 min 0,076 mm 181 W/m -3,9 C 0,0 C 11,3 km/h (2 Bft) 100 %
05.01.2017 14:10 0,1 C 0,0 C 0,1 C 73 % 1027,7 hPa 0,0 l/m 6,2 km/h (2 Bft) N-NW 331 0 min 0,000 mm 144 W/m -4,2 C 0,1 C 22,5 km/h (4 Bft) 100 %
05.01.2017 14:20 0,2 C 0,1 C 0,2 C 72 % 1028,0 hPa 0,0 l/m 6,6 km/h (2 Bft) N-NW 340 0 min 0,000 mm 105 W/m -4,2 C 0,0 C 22,5 km/h (4 Bft) 100 %
05.01.2017 14:30 0,0 C 0,0 C 0,2 C 72 % 1028,1 hPa 0,0 l/m 7,3 km/h (2 Bft) N 351 0 min 0,000 mm 104 W/m -4,4 C -0,9 C 24,1 km/h (4 Bft) 100 %
05.01.2017 14:40 -0,1 C -0,1 C 0,0 C 72 % 1028,4 hPa 0,0 l/m 3,4 km/h (1 Bft) N-NW 338 0 min 0,000 mm 134 W/m -4,5 C -0,1 C 14,5 km/h (3 Bft) 100 %
05.01.2017 14:50 -0,3 C -0,3 C -0,1 C 70 % 1028,6 hPa 0,0 l/m 1,3 km/h (1 Bft) N 351 10 min 0,000 mm 167 W/m -5,1 C -0,3 C 11,3 km/h (2 Bft) 100 %
05.01.2017 15:00 -0,4 C -0,4 C -0,3 C 72 % 1028,8 hPa 0,0 l/m 1,3 km/h (1 Bft) N-NW 346 0 min 0,051 mm 86 W/m -4,8 C -0,4 C 9,7 km/h (2 Bft) 100 %
05.01.2017 15:10 -0,4 C -0,5 C -0,4 C 72 % 1029,1 hPa 0,0 l/m 3,5 km/h (1 Bft) N 355 0 min 0,000 mm 39 W/m -4,8 C -0,4 C 11,3 km/h (2 Bft) 97 %
05.01.2017 15:20 -0,6 C -0,6 C -0,4 C 70 % 1029,1 hPa 0,0 l/m 1,9 km/h (1 Bft) N 351 0 min 0,000 mm 32 W/m -5,4 C -0,6 C 11,3 km/h (2 Bft) 97 %
05.01.2017 15:30 -0,8 C -0,8 C -0,6 C 71 % 1029,2 hPa 0,0 l/m 1,8 km/h (1 Bft) N 355 0 min 0,000 mm 28 W/m -5,4 C -0,8 C 14,5 km/h (3 Bft) 97 %
05.01.2017 15:40 -1,0 C -1,0 C -0,8 C 69 % 1029,4 hPa 0,0 l/m 0,6 km/h (0 Bft) N-NW 344 0 min 0,000 mm 25 W/m -5,9 C -1,0 C 8,0 km/h (2 Bft) 98 %
05.01.2017 15:50 -1,1 C -1,1 C -1,0 C 70 % 1029,6 hPa 0,0 l/m 0,1 km/h (0 Bft) N-NW 346 0 min 0,000 mm 25 W/m -5,9 C -1,1 C 3,2 km/h (1 Bft) 99 %
05.01.2017 16:00 -1,3 C -1,3 C -1,1 C 70 % 1029,6 hPa 0,0 l/m 0,3 km/h (0 Bft) N-NW 343 0 min 0,026 mm 19 W/m -6,0 C -1,3 C 8,0 km/h (2 Bft) 99 %
05.01.2017 16:10 -1,6 C -1,6 C -1,3 C 72 % 1029,8 hPa 0,0 l/m 0,1 km/h (0 Bft) N-NW 341 0 min 0,000 mm 16 W/m -6,0 C -1,6 C 1,6 km/h (1 Bft) 100 %
05.01.2017 16:20 -1,9 C -1,9 C -1,6 C 74 % 1029,9 hPa 0,0 l/m 0,6 km/h (0 Bft) N-NW 334 0 min 0,000 mm 25 W/m -5,9 C -1,9 C 8,0 km/h (2 Bft) 91 %
05.01.2017 16:30 -2,3 C -2,3 C -1,9 C 74 % 1030,1 hPa 0,0 l/m 0,2 km/h (0 Bft) N 355 0 min 0,000 mm 9 W/m -6,3 C -2,3 C 4,8 km/h (1 Bft) 99 %
05.01.2017 16:40 -2,6 C -2,6 C -2,3 C 75 % 1030,2 hPa 0,0 l/m 0,0 km/h (0 Bft) N 355 0 min 0,000 mm 0 W/m -6,4 C -2,6 C 1,6 km/h (1 Bft) 100 %
05.01.2017 16:50 -3,0 C -3,0 C -2,6 C 76 % 1030,5 hPa 0,0 l/m 0,2 km/h (0 Bft) N-NW 346 0 min 0,000 mm 0 W/m -6,6 C -3,0 C 4,8 km/h (1 Bft) 91 %
05.01.2017 17:00 -3,3 C -3,3 C -3,0 C 77 % 1030,7 hPa 0,0 l/m 0,0 km/h (0 Bft) N-NW 346 0 min 0,000 mm 0 W/m -6,7 C -3,3 C 0,0 km/h (0 Bft) 100 %
05.01.2017 17:10 -3,6 C -3,6 C -3,3 C 77 % 1031,0 hPa 0,0 l/m 0,0 km/h (0 Bft) N-NW 346 0 min 0,000 mm 0 W/m -7,0 C -3,6 C 0,0 km/h (0 Bft) 100 %
05.01.2017 17:20 -3,7 C -3,7 C -3,6 C 77 % 1031,3 hPa 0,0 l/m 0,0 km/h (0 Bft) N-NW 346 0 min 0,000 mm 0 W/m -7,1 C -3,7 C 0,0 km/h (0 Bft) 100 %
05.01.2017 17:30 -3,8 C -3,8 C -3,7 C 78 % 1031,3 hPa 0,0 l/m 0,0 km/h (0 Bft) N-NW 346 0 min 0,000 mm 0 W/m -7,1 C -3,8 C 0,0 km/h (0 Bft) 100 %
05.01.2017 17:40 -4,0 C -4,0 C -3,8 C 78 % 1031,4 hPa 0,0 l/m 0,1 km/h (0 Bft) N-NW 345 0 min 0,000 mm 0 W/m -7,3 C -4,0 C 4,8 km/h (1 Bft) 100 %
05.01.2017 17:50 -4,3 C -4,3 C -4,0 C 79 % 1031,7 hPa 0,0 l/m 0,7 km/h (0 Bft) N-NW 342 0 min 0,000 mm 0 W/m -7,4 C -4,3 C 6,4 km/h (2 Bft) 91 %
05.01.2017 18:00 -4,6 C -4,6 C -4,3 C 80 % 1031,9 hPa 0,0 l/m 0,0 km/h (0 Bft) N-NW 344 0 min 0,000 mm 0 W/m -7,5 C -4,6 C 0,0 km/h (0 Bft) 100 %
05.01.2017 18:10 -4,7 C -4,7 C -4,6 C 79 % 1032,0 hPa 0,0 l/m 0,0 km/h (0 Bft) N-NW 344 0 min 0,000 mm 0 W/m -7,8 C -4,7 C 0,0 km/h (0 Bft) 100 %
05.01.2017 18:20 -4,8 C -4,8 C -4,7 C 80 % 1032,3 hPa 0,0 l/m 0,0 km/h (0 Bft) N-NW 344 0 min 0,000 mm 0 W/m -7,7 C -4,8 C 0,0 km/h (0 Bft) 90 %
05.01.2017 18:30 -5,0 C -5,0 C -4,8 C 79 % 1032,5 hPa 0,0 l/m 0,0 km/h (0 Bft) N-NW 344 0 min 0,000 mm 0 W/m -8,1 C -5,0 C 0,0 km/h (0 Bft) 100 %
05.01.2017 18:40 -5,1 C -5,1 C -5,0 C 79 % 1032,5 hPa 0,0 l/m 0,0 km/h (0 Bft) N-NW 344 0 min 0,000 mm 0 W/m -8,2 C -5,1 C 0,0 km/h (0 Bft) 100 %
05.01.2017 18:50 -5,1 C -5,1 C -5,1 C 78 % 1032,5 hPa 0,0 l/m 0,0 km/h (0 Bft) N-NW 344 0 min 0,000 mm 0 W/m -8,3 C -5,1 C 0,0 km/h (0 Bft) 100 %
05.01.2017 19:00 -5,3 C -5,3 C -5,1 C 78 % 1032,8 hPa 0,0 l/m 0,0 km/h (0 Bft) N-NW 344 0 min 0,000 mm 0 W/m -8,5 C -5,3 C 0,0 km/h (0 Bft) 100 %
05.01.2017 19:10 -5,5 C -5,5 C -5,3 C 79 % 1033,0 hPa 0,0 l/m 0,0 km/h (0 Bft) N-NW 344 0 min 0,000 mm 0 W/m -8,5 C -5,5 C 0,0 km/h (0 Bft) 100 %
05.01.2017 19:20 -5,8 C -5,8 C -5,4 C 80 % 1033,2 hPa 0,0 l/m 0,0 km/h (0 Bft) N-NW 344 0 min 0,000 mm 0 W/m -8,7 C -5,8 C 0,0 km/h (0 Bft) 100 %
05.01.2017 19:30 -6,2 C -6,2 C -5,8 C 81 % 1033,4 hPa 0,0 l/m 0,0 km/h (0 Bft) N-NW 344 0 min 0,000 mm 0 W/m -8,9 C -6,2 C 0,0 km/h (0 Bft) 100 %
05.01.2017 19:40 -6,5 C -6,5 C -6,2 C 83 % 1033,5 hPa 0,0 l/m 0,0 km/h (0 Bft) N-NW 344 0 min 0,000 mm 0 W/m -8,9 C -6,5 C 0,0 km/h (0 Bft) 100 %
05.01.2017 19:50 -6,8 C -6,8 C -6,5 C 84 % 1033,7 hPa 0,0 l/m 0,0 km/h (0 Bft) N-NW 344 0 min 0,000 mm 0 W/m -9,0 C -6,8 C 0,0 km/h (0 Bft) 91 %
05.01.2017 20:00 -6,8 C -6,8 C -6,8 C 84 % 1033,9 hPa 0,0 l/m 0,0 km/h (0 Bft) N-NW 344 0 min 0,000 mm 0 W/m -9,0 C -6,8 C 0,0 km/h (0 Bft) 100 %
05.01.2017 20:10 -6,8 C -6,8 C -6,8 C 84 % 1034,1 hPa 0,0 l/m 0,0 km/h (0 Bft) N-NW 348 0 min 0,000 mm 0 W/m -9,0 C -6,8 C 0,0 km/h (0 Bft) 99 %
05.01.2017 20:20 -6,7 C -6,8 C -6,7 C 84 % 1034,1 hPa 0,0 l/m 0,0 km/h (0 Bft) N 355 0 min 0,000 mm 0 W/m -8,9 C -6,7 C 0,0 km/h (0 Bft) 100 %
05.01.2017 20:30 -6,6 C -6,7 C -6,6 C 84 % 1034,3 hPa 0,0 l/m 0,0 km/h (0 Bft) N 360 0 min 0,000 mm 0 W/m -8,8 C -6,6 C 0,0 km/h (0 Bft) 100 %
05.01.2017 20:40 -6,6 C -6,7 C -6,6 C 84 % 1034,5 hPa 0,0 l/m 0,0 km/h (0 Bft) N 360 0 min 0,000 mm 0 W/m -8,8 C -6,6 C 0,0 km/h (0 Bft) 91 %
05.01.2017 20:50 -6,8 C -6,8 C -6,6 C 84 % 1034,5 hPa 0,0 l/m 0,0 km/h (0 Bft) N 5 0 min 0,000 mm 0 W/m -9,0 C -6,8 C 0,0 km/h (0 Bft) 100 %
05.01.2017 21:00 -6,8 C -6,8 C -6,8 C 84 % 1034,7 hPa 0,0 l/m 0,0 km/h (0 Bft) N 5 0 min 0,000 mm 0 W/m -9,0 C -6,8 C 3,2 km/h (1 Bft) 100 %
05.01.2017 21:10 -6,8 C -6,8 C -6,8 C 83 % 1034,8 hPa 0,0 l/m 0,0 km/h (0 Bft) N 0 0 min 0,000 mm 0 W/m -9,2 C -6,8 C 0,0 km/h (0 Bft) 100 %
05.01.2017 21:20 -6,8 C -6,8 C -6,8 C 83 % 1035,0 hPa 0,0 l/m 0,0 km/h (0 Bft) N 360 0 min 0,000 mm 0 W/m -9,2 C -6,8 C 1,6 km/h (1 Bft) 100 %
05.01.2017 21:30 -6,8 C -6,8 C -6,8 C 82 % 1035,3 hPa 0,0 l/m 0,0 km/h (0 Bft) N 0 0 min 0,000 mm 0 W/m -9,3 C -6,8 C 0,0 km/h (0 Bft) 100 %
05.01.2017 21:40 -6,9 C -6,9 C -6,8 C 82 % 1035,4 hPa 0,0 l/m 0,0 km/h (0 Bft) N 0 0 min 0,000 mm 0 W/m -9,4 C -6,9 C 0,0 km/h (0 Bft) 100 %
05.01.2017 21:50 -7,2 C -7,2 C -6,9 C 81 % 1035,5 hPa 0,0 l/m 0,0 km/h (0 Bft) N 0 0 min 0,000 mm 0 W/m -9,9 C -7,2 C 0,0 km/h (0 Bft) 100 %
05.01.2017 22:00 -7,4 C -7,4 C -7,2 C 82 % 1035,6 hPa 0,0 l/m 0,0 km/h (0 Bft) N 0 0 min 0,000 mm 0 W/m -9,9 C -7,4 C 0,0 km/h (0 Bft) 100 %
05.01.2017 22:10 -7,7 C -7,7 C -7,4 C 82 % 1035,7 hPa 0,0 l/m 0,0 km/h (0 Bft) N 0 0 min 0,000 mm 0 W/m -10,2 C -7,7 C 0,0 km/h (0 Bft) 100 %
05.01.2017 22:20 -7,8 C -7,9 C -7,7 C 84 % 1035,7 hPa 0,0 l/m 0,0 km/h (0 Bft) N 0 0 min 0,000 mm 0 W/m -10,0 C -7,8 C 0,0 km/h (0 Bft) 100 %
05.01.2017 22:30 -8,1 C -8,1 C -7,8 C 84 % 1035,8 hPa 0,0 l/m 0,0 km/h (0 Bft) N 0 0 min 0,000 mm 0 W/m -10,3 C -8,1 C 0,0 km/h (0 Bft) 100 %
05.01.2017 22:40 -8,2 C -8,2 C -8,1 C 86 % 1035,9 hPa 0,0 l/m 0,0 km/h (0 Bft) N 0 0 min 0,000 mm 0 W/m -10,1 C -8,2 C 0,0 km/h (0 Bft) 100 %
05.01.2017 22:50 -8,4 C -8,4 C -8,2 C 87 % 1036,0 hPa 0,0 l/m 0,0 km/h (0 Bft) N 0 0 min 0,000 mm 0 W/m -10,2 C -8,4 C 0,0 km/h (0 Bft) 100 %
05.01.2017 23:00 -8,5 C -8,5 C -8,4 C 87 % 1036,2 hPa 0,0 l/m 0,0 km/h (0 Bft) N 0 0 min 0,000 mm 0 W/m -10,3 C -8,5 C 0,0 km/h (0 Bft) 100 %
05.01.2017 23:10 -8,5 C -8,5 C -8,5 C 87 % 1036,4 hPa 0,0 l/m 0,0 km/h (0 Bft) N 0 0 min 0,000 mm 0 W/m -10,3 C -8,5 C 0,0 km/h (0 Bft) 100 %
05.01.2017 23:20 -8,3 C -8,5 C -8,3 C 87 % 1036,6 hPa 0,0 l/m 0,0 km/h (0 Bft) N 0 0 min 0,000 mm 0 W/m -10,1 C -8,3 C 0,0 km/h (0 Bft) 91 %
05.01.2017 23:30 -8,2 C -8,3 C -8,2 C 87 % 1036,7 hPa 0,0 l/m 0,0 km/h (0 Bft) N 0 0 min 0,000 mm 0 W/m -10,0 C -8,2 C 0,0 km/h (0 Bft) 100 %
05.01.2017 23:40 -8,3 C -8,3 C -8,2 C 87 % 1036,7 hPa 0,0 l/m 0,0 km/h (0 Bft) N 0 0 min 0,000 mm 0 W/m -10,1 C -8,3 C 0,0 km/h (0 Bft) 100 %
05.01.2017 23:50 -8,4 C -8,4 C -8,3 C 87 % 1036,9 hPa 0,0 l/m 0,0 km/h (0 Bft) N 0 0 min 0,000 mm 0 W/m -10,2 C -8,4 C 0,0 km/h (0 Bft) 99 %
_ Min-Zeit 23:00 23:00 23:10 15:40 00:00 - 01:40 - - - - - 22:30 23:00 01:50 06:10
Minimum _ -8,5 C -8,5 C -8,5 C 69 % 1017,9 hPa - 0,0 km/h (0 Bft) - - - - - -10,3 C -8,5 C 0,0 km/h (0 Bft) 88 %
_ Max-Zeit 12:30 12:20 12:30 00:00 23:50 00:00 13:00 - - 09:40 12:00 10:50 00:30 12:10 13:00 00:00
Maximum _ 1,6 C 1,4 C 1,6 C 93 % 1036,9 hPa 0,0 l/m 8,4 km/h
N-NW (2 Bft)
- - 10 min 0,102 mm 371 W/m -0,5 C 1,4 C 27,4 km/h
NW (4 Bft)
100 %
Durchschnitt _ -2,6 C -2,7 C -2,5 C 85 % 1026,9 hPa #0,0 l/m 1,1 km/h (0 Bft) N-NW - #4:10 h #0,483 mm 170 W/m -4,9 C -2,7 C 5,1 km/h (1 Bft) 99 %
PRIVATE WETTERSTATION BILLIGHEIM-ALLFELD - www.neckar-odenwald-wetter.de - Holger Sonntag